Latest Weather Observations for Maria Island

IDT60801

Issued at 1:35 pm EDT Thursday 23 October 2014 (issued every 30 minutes, with the page automatically refreshed every 10 minutes)

About weather observations | Map of weather stations | Latest weather observations for TAS | Other Formats
Station Details ID: 092124 Name: MARIA ISLAND (POINT LESUEUR) Lat: -42.66 Lon: 148.02 Height: 28.0 m
Data from the previous 72 hours. | See also: Recent months at Maria Island
Date/Time
EDT
Temp
°C
App
Temp
°C
Dew
Point
Rel
Hum
%
Delta-T
°C
Wind Press
QNH
hPa
Press
MSL
hPa
Rain
since 9 am
mm
Dir
 
Spd
km/h
Gust
km/h
Spd
kts
Gust
kts
23/01:30pm 14.1 9.8 5.2 55 4.1 SE 17 26 9 14 1025.5 1025.5 0.0
23/01:00pm 13.7 8.9 4.8 55 4.1 SE 19 26 10 14 1025.4 1025.4 0.0
23/12:30pm 13.2 8.3 4.1 54 4.1 SE 19 28 10 15 1025.6 1025.6 0.0
23/12:00pm 12.8 7.9 5.0 59 3.6 SSE 20 26 11 14 1025.9 1025.9 0.0
23/11:30am 12.9 8.0 5.1 59 3.6 S 20 24 11 13 1026.0 1026.0 0.0
23/11:00am 13.8 9.3 6.2 60 3.6 S 19 28 10 15 1026.1 1026.1 0.0
23/10:30am 12.1 6.4 5.0 62 3.3 S 24 32 13 17 1026.0 1026.0 0.0
23/10:00am 12.1 6.8 4.8 61 3.3 S 22 28 12 15 1026.0 1026.0 0.0
23/09:30am 12.4 7.1 4.9 60 3.4 SSE 22 28 12 15 1025.8 1025.8 0.0
23/09:00am 12.0 6.4 5.2 63 3.1 S 24 32 13 17 1025.5 1025.5 0.0
23/08:30am 11.4 5.6 4.6 63 3.1 S 24 32 13 17 1025.2 1025.2 0.0
23/08:00am 11.5 5.5 5.2 65 2.9 S 26 35 14 19 1024.9 1024.9 0.0
23/07:30am 11.5 5.6 5.8 68 2.7 S 26 32 14 17 1024.4 1024.4 0.0
23/07:00am 11.3 4.2 5.6 68 2.6 SSW 32 39 17 21 1023.8 1023.8 0.0
23/06:30am 11.2 4.1 5.7 69 2.5 SSW 32 37 17 20 1023.2 1023.2 0.0
23/06:00am 11.3 4.8 6.4 72 2.3 SSW 30 33 16 18 1022.8 1022.8 0.0
23/05:30am 11.1 4.1 6.0 71 2.4 S 32 37 17 20 1022.3 1022.3 0.0
23/05:00am 11.3 4.8 6.4 72 2.3 S 30 35 16 19 1021.8 1021.8 0.0
23/04:30am 11.3 4.2 6.4 72 2.3 S 33 43 18 23 1021.5 1021.5 0.0
23/04:00am 11.5 3.0 6.8 73 2.2 S 41 50 22 27 1021.1 1021.1 0.0
23/03:30am 11.5 3.1 7.2 75 2.1 S 41 52 22 28 1020.9 1020.9 0.0
23/03:00am 11.6 2.2 8.8 83 1.4 SSW 48 56 26 30 1020.7 1020.7 0.0
23/02:30am 12.2 3.3 9.2 82 1.5 SSW 46 54 25 29 1020.2 1020.2 0.0
23/02:00am 12.3 4.3 10.5 89 0.9 SSW 43 50 23 27 1020.4 1020.4 0.0
23/01:30am 12.8 3.6 10.9 88 1.0 SSW 50 59 27 32 1019.7 1019.7 0.0
23/01:00am 13.4 5.3 10.8 84 1.4 SSW 44 52 24 28 1019.8 1019.8 0.0
23/12:30am 13.5 6.6 10.3 81 1.7 SSW 37 48 20 26 1019.6 1019.6 0.0
23/12:00am 13.4 5.9 10.8 84 1.4 SSW 41 46 22 25 1019.2 1019.2 0.0
 
Date/Time
EDT
Temp
°C
App
Temp
°C
Dew
Point
Rel
Hum
%
Delta-T
°C
Wind Press
QNH
hPa
Press
MSL
hPa
Rain
since 9 am
mm
Dir
 
Spd
km/h
Gust
km/h
Spd
kts
Gust
kts
22/11:30pm 13.5 5.4 10.7 83 1.5 SSW 44 52 24 28 1018.6 1018.6 0.0
22/11:00pm 13.6 6.3 11.5 87 1.1 SSW 41 50 22 27 1018.3 1018.3 0.0
22/10:30pm 13.9 8.3 12.1 89 1.0 SSW 33 41 18 22 1017.9 1017.9 0.0
22/10:00pm 13.7 10.5 11.9 89 1.0 S 20 26 11 14 1017.7 1017.7 0.0
22/09:30pm 13.9 9.1 11.8 87 1.1 S 28 35 15 19 1017.4 1017.4 0.0
22/09:00pm 14.0 7.9 11.7 86 1.2 SSE 35 43 19 23 1016.9 1016.9 0.0
22/08:30pm 14.4 6.9 11.0 80 1.8 SSE 41 52 22 28 1016.3 1016.3 0.0
22/08:23pm 14.5 6.6 10.7 78 2.0 SSE 43 50 23 27 1015.9 1015.9 0.0
22/08:00pm 13.9 7.4 12.8 93 0.6 S 39 50 21 27 1014.8 1014.8 0.0
22/07:56pm 13.9 8.6 12.6 92 0.7 S 32 46 17 25 1014.8 1014.8 0.0
22/07:30pm 14.0 11.0 12.6 91 0.8 SSW 20 24 11 13 1014.2 1014.2 0.0
22/07:00pm 15.0 14.1 12.7 86 1.3 NW 9 20 5 11 1013.9 1013.9 0.0
22/06:30pm 16.2 15.4 11.8 75 2.4 WNW 7 9 4 5 1013.6 1013.6 0.0
22/06:00pm 15.6 15.2 12.5 82 1.7 SSW 6 6 3 3 1013.5 1013.5 0.0
22/05:30pm 16.4 16.5 12.6 78 2.1 WNW 4 6 2 3 1013.8 1013.8 0.0
22/05:00pm 17.0 16.0 12.3 74 2.6 NW 9 13 5 7 1013.8 1013.8 0.0
22/04:30pm 17.1 16.5 12.2 73 2.7 WNW 7 13 4 7 1013.9 1013.9 0.0
22/04:00pm 18.0 14.3 11.6 66 3.5 N 22 24 12 13 1013.4 1013.4 0.0
22/03:30pm 19.7 15.6 11.5 59 4.5 N 24 26 13 14 1013.4 1013.4 0.0
22/03:00pm 19.6 15.1 11.4 59 4.5 N 26 30 14 16 1013.7 1013.7 0.0
22/02:30pm 19.9 15.3 10.9 56 4.9 N 26 30 14 16 1013.8 1013.8 0.0
22/02:00pm 19.7 14.5 10.1 54 5.2 N 28 32 15 17 1014.4 1014.4 0.0
22/01:30pm 19.8 13.8 10.0 53 5.3 N 32 35 17 19 1014.9 1014.9 0.0
22/01:00pm 19.2 12.9 9.1 52 5.3 N 32 35 17 19 1015.1 1015.1 0.0
22/12:30pm 19.1 14.2 8.4 50 5.5 N 24 32 13 17 1015.9 1015.9 0.0
22/12:00pm 18.0 11.3 8.3 53 5.0 N 33 37 18 20 1016.5 1016.5 0.0
22/11:30am 17.3 9.4 7.9 54 4.8 N 39 44 21 24 1017.0 1017.0 0.0
22/11:00am 15.8 7.9 7.8 59 4.0 N 39 44 21 24 1017.4 1017.4 0.0
22/10:30am 14.8 7.2 7.6 62 3.6 N 37 43 20 23 1018.1 1018.1 0.0
22/10:00am 14.8 7.4 8.3 65 3.3 N 37 43 20 23 1018.8 1018.8 0.0
22/09:30am 13.8 6.6 7.6 66 3.1 N 35 41 19 22 1018.8 1018.8 0.0
22/09:00am 14.2 7.1 7.9 66 3.1 N 35 41 19 22 1019.0 1019.0 0.0
22/08:30am 13.5 6.4 8.1 70 2.7 N 35 41 19 22 1019.6 1019.6 0.0
22/08:00am 13.0 5.0 7.5 69 2.7 N 39 43 21 23 1019.8 1019.8 0.0
22/07:30am 12.7 5.1 7.6 71 2.5 N 37 43 20 23 1020.0 1020.0 0.0
22/07:00am 12.1 4.5 7.4 73 2.3 N 37 43 20 23 1020.3 1020.3 0.0
22/06:30am 11.8 4.6 7.5 75 2.1 N 35 41 19 22 1020.9 1020.9 0.0
22/06:00am 11.8 4.1 7.3 74 2.2 N 37 43 20 23 1020.9 1020.9 0.0
22/05:30am 11.6 3.5 6.9 73 2.2 N 39 44 21 24 1021.3 1021.3 0.0
22/05:00am 11.7 2.8 6.8 72 2.3 N 43 48 23 26 1021.5 1021.5 0.0
22/04:30am 11.6 3.1 7.1 74 2.2 N 41 46 22 25 1022.1 1022.1 0.0
22/04:00am 11.5 4.1 6.8 73 2.2 N 35 41 19 22 1022.7 1022.7 0.0
22/03:30am 11.5 4.6 7.2 75 2.1 N 33 37 18 20 1023.1 1023.1 0.0
22/03:00am 11.6 4.7 7.1 74 2.1 N 33 39 18 21 1023.8 1023.8 0.0
22/02:30am 11.9 4.0 7.8 76 2.0 N 39 46 21 25 1024.0 1024.0 0.0
22/02:00am 12.1 3.5 8.2 77 1.9 N 43 48 23 26 1024.0 1024.0 0.0
22/01:30am 12.2 4.1 8.5 78 1.8 N 41 46 22 25 1024.4 1024.4 0.0
22/01:00am 12.5 3.9 8.8 78 1.8 N 44 50 24 27 1024.7 1024.7 0.0
22/12:30am 12.7 4.8 9.3 80 1.7 N 41 48 22 26 1025.3 1025.3 0.0
22/12:00am 12.8 4.3 9.3 79 1.8 N 44 52 24 28 1025.5 1025.5 0.0
 
Date/Time
EDT
Temp
°C
App
Temp
°C
Dew
Point
Rel
Hum
%
Delta-T
°C
Wind Press
QNH
hPa
Press
MSL
hPa
Rain
since 9 am
mm
Dir
 
Spd
km/h
Gust
km/h
Spd
kts
Gust
kts
21/11:30pm 12.9 4.9 9.0 77 2.0 N 41 50 22 27 1025.7 1025.7 0.0
21/11:00pm 12.9 5.9 8.6 75 2.1 N 35 44 19 24 1026.3 1026.3 0.0
21/10:30pm 13.0 5.3 8.5 74 2.2 N 39 48 21 26 1026.5 1026.5 0.0
21/10:00pm 13.1 5.0 8.8 75 2.1 N 41 48 22 26 1026.6 1026.6 0.0
21/09:30pm 13.2 5.1 8.7 74 2.3 NNE 41 50 22 27 1026.9 1026.9 0.0
21/09:00pm 13.2 6.3 8.7 74 2.2 NNE 35 46 19 25 1027.0 1027.0 0.0
21/08:30pm 13.2 7.2 8.5 73 2.3 N 30 35 16 19 1027.4 1027.4 0.0
21/08:00pm 13.2 6.7 8.3 72 2.4 N 32 39 17 21 1027.5 1027.5 0.0
21/07:30pm 13.4 8.1 8.5 72 2.5 N 26 33 14 18 1027.8 1027.8 0.0
21/07:00pm 13.7 7.5 7.7 67 2.9 N 30 37 16 20 1027.8 1027.8 0.0
21/06:30pm 14.0 8.6 7.8 66 3.1 NNE 26 32 14 17 1028.0 1028.0 0.0
21/06:00pm 14.3 8.9 8.0 66 3.1 NNE 26 35 14 19 1028.0 1028.0 0.0
21/05:30pm 14.5 8.0 8.0 65 3.2 N 32 41 17 22 1028.0 1028.0 0.0
21/05:00pm 14.8 7.6 7.6 62 3.5 N 35 43 19 23 1028.1 1028.1 0.0
21/04:30pm 15.2 8.5 7.3 59 3.9 N 32 39 17 21 1028.5 1028.5 0.0
21/04:00pm 15.3 8.5 7.8 61 3.7 N 33 41 18 22 1028.9 1028.9 0.0
21/03:30pm 15.3 7.9 6.8 57 4.2 N 35 43 19 23 1029.2 1029.2 0.0
21/03:00pm 15.6 8.3 7.1 57 4.2 NNE 35 44 19 24 1029.6 1029.6 0.0
21/02:30pm 15.7 8.3 6.7 55 4.4 N 35 43 19 23 1030.0 1030.0 0.0
21/02:00pm 15.4 7.9 6.2 54 4.4 N 35 41 19 22 1030.5 1030.5 0.0
21/01:30pm 15.6 8.5 5.5 51 4.8 N 32 39 17 21 1031.0 1031.1 0.0
21/01:00pm 15.8 9.6 6.3 53 4.6 N 28 35 15 19 1031.5 1031.6 0.0
21/12:30pm 15.4 8.4 5.9 53 4.6 N 32 37 17 20 1031.6 1031.7 0.0
21/12:00pm 14.6 6.9 5.4 54 4.3 N 35 43 19 23 1031.9 1032.0 0.0
21/11:30am 14.0 6.4 5.9 58 3.9 N 35 43 19 23 1032.5 1032.6 0.0
21/11:00am 14.0 7.1 6.4 60 3.6 N 32 37 17 20 1032.9 1033.0 0.0
21/10:30am 13.6 8.2 6.5 62 3.4 N 24 28 13 15 1033.4 1033.5 0.0
21/10:00am 13.3 8.2 6.2 62 3.3 N 22 24 12 13 1033.6 1033.7 0.0
21/09:30am 12.3 8.5 5.9 65 3.0 N 15 19 8 10 1033.8 1033.9 0.0
21/09:00am 11.6 8.2 5.9 68 2.6 N 13 17 7 9 1033.9 1034.0 0.0
21/08:30am 10.6 7.1 5.4 70 2.4 N 13 15 7 8 1033.9 1034.0 0.0
21/08:00am 10.2 6.0 5.8 74 2.0 N 17 19 9 10 1033.9 1034.0 0.0
21/07:30am 9.9 6.3 5.1 72 2.2 N 13 15 7 8 1033.9 1034.0 0.0
21/07:00am 9.2 5.1 4.6 73 2.0 NNW 15 17 8 9 1033.8 1033.9 0.0
21/06:30am 8.7 5.0 4.7 76 1.8 N 13 17 7 9 1033.6 1033.7 0.0
21/06:00am 8.5 5.3 5.3 80 1.4 NNW 11 13 6 7 1033.5 1033.6 0.0
21/05:30am 8.9 4.0 3.9 71 2.2 NNW 19 22 10 12 1033.1 1033.2 0.0
21/05:00am 8.8 4.8 4.8 76 1.8 NNW 15 17 8 9 1032.8 1032.9 0.0
21/04:30am 8.3 5.0 4.7 78 1.6 NW 11 13 6 7 1033.0 1033.1 0.0
21/04:00am 8.9 5.7 4.9 76 1.8 NNW 11 13 6 7 1032.9 1033.0 0.0
21/03:30am 8.4 5.2 5.0 79 1.5 NW 11 13 6 7 1033.0 1033.1 0.0
21/03:00am 8.9 5.8 5.5 79 1.5 NW 11 15 6 8 1033.3 1033.4 0.0
21/02:30am 8.5 5.8 3.8 72 2.0 NNE 7 11 4 6 1033.4 1033.5 0.0
21/02:00am 8.9 5.1 3.7 70 2.2 NE 13 15 7 8 1033.3 1033.4 0.0
21/01:30am 8.8 5.4 4.0 72 2.1 NE 11 11 6 6 1033.8 1033.9 0.0
21/01:00am 9.3 5.9 3.9 69 2.3 ENE 11 13 6 7 1034.1 1034.2 0.0
21/12:30am 9.4 6.7 3.8 68 2.4 ENE 7 7 4 4 1034.4 1034.5 0.0
21/12:00am 9.8 6.9 4.4 69 2.4 ENE 9 11 5 6 1034.7 1034.8 0.0
 
Date/Time
EDT
Temp
°C
App
Temp
°C
Dew
Point
Rel
Hum
%
Delta-T
°C
Wind Press
QNH
hPa
Press
MSL
hPa
Rain
since 9 am
mm
Dir
 
Spd
km/h
Gust
km/h
Spd
kts
Gust
kts
20/11:30pm 9.7 7.2 3.9 67 2.5 NE 6 7 3 4 1035.1 1035.2 0.0
20/11:00pm 9.6 7.5 3.8 67 2.5 ENE 4 6 2 3 1035.4 1035.5 0.0
20/10:30pm 9.3 6.8 3.5 67 2.5 ENE 6 7 3 4 1035.5 1035.6 0.0
20/10:00pm 9.1 6.6 3.7 69 2.3 ENE 6 7 3 4 1035.5 1035.6 0.0
20/09:30pm 9.3 6.6 3.9 69 2.4 ESE 7 9 4 5 1035.3 1035.4 0.0
20/09:00pm 9.6 6.1 3.6 66 2.6 ESE 11 13 6 7 1035.2 1035.3 0.0
20/08:30pm 9.9 6.4 3.6 65 2.8 SE 11 13 6 7 1035.0 1035.1 0.0
20/08:00pm 9.8 6.3 3.3 64 2.8 SE 11 13 6 7 1034.6 1034.7 0.0
20/07:30pm 9.8 6.0 3.8 66 2.6 SE 13 17 7 9 1034.2 1034.3 0.0
20/07:00pm 10.4 6.6 3.9 64 2.8 ESE 13 17 7 9 1034.1 1034.2 0.0
20/06:30pm 10.7 6.5 3.7 62 3.1 ESE 15 19 8 10 1033.8 1033.9 0.0
20/06:00pm 11.2 7.0 3.7 60 3.3 ESE 15 20 8 11 1033.6 1033.7 0.0
20/05:30pm 11.5 6.4 3.0 56 3.7 E 19 22 10 12 1033.5 1033.6 0.0
20/05:00pm 11.9 6.4 3.9 58 3.5 E 22 28 12 15 1033.3 1033.4 0.0
20/04:30pm 12.1 6.6 3.9 57 3.7 E 22 33 12 18 1033.2 1033.3 0.0
20/04:00pm 12.1 6.6 3.9 57 3.6 E 22 30 12 16 1033.0 1033.1 0.0
20/03:30pm 12.5 8.4 2.4 50 4.4 SSE 13 19 7 10 1033.4 1033.5 0.0
20/03:00pm 12.6 8.5 2.5 50 4.4 SSE 13 19 7 10 1033.4 1033.5 0.0
20/02:30pm 13.3 8.2 3.1 50 4.5 S 19 24 10 13 1033.5 1033.6 0.0
20/02:00pm 12.9 7.4 1.9 47 4.7 S 20 26 11 14 1033.6 1033.7 0.0

Other Formats:

Comma delimited format used in spreadsheet applications
http://www.bom.gov.au/fwo/IDT60801/IDT60801.95988.axf

JavaScript Object Notation format (JSON) in row-major order
http://www.bom.gov.au/fwo/IDT60801/IDT60801.95988.json